Time;durP1;ratioP1;P1;durP2;ratioP2;P2;SDS_P1;SDS_P2;PMS_P1;PMS_P2;Temp;Humidity;BMP_temperature;BMP_pressure;BME280_temperature;BME280_humidity;BME280_pressure;Samples;Min_cycle;Max_cycle;Signal;HPM_P1;HPM_P2
2022/08/14 00:00:13;;;;;;;0.50;0.50;;;15.30;1.00;;;;;;5045193;28;20184;-78
2022/08/14 00:02:39;;;;;;;0.50;0.50;;;15.30;1.00;;;;;;5038495;28;20694;-78
2022/08/14 00:05:07;;;;;;;0.50;0.50;;;15.20;1.00;;;;;;5053399;28;20213;-79
2022/08/14 00:07:34;;;;;;;0.40;0.40;;;15.20;1.00;;;;;;5035762;28;20614;-78
2022/08/14 00:10:00;;;;;;;0.50;0.50;;;15.30;99.90;;;;;;5035856;28;20223;-78
2022/08/14 00:12:27;;;;;;;0.40;0.40;;;15.20;99.90;;;;;;5047661;28;20299;-79
2022/08/14 00:14:53;;;;;;;0.40;0.40;;;15.10;1.00;;;;;;5039459;28;20200;-77
2022/08/14 00:17:18;;;;;;;0.40;0.40;;;15.10;99.90;;;;;;5051491;28;20994;-78
2022/08/14 00:19:44;;;;;;;0.50;0.50;;;15.00;99.90;;;;;;5037508;28;20180;-79
2022/08/14 00:22:11;;;;;;;0.50;0.50;;;14.90;1.00;;;;;;5038758;28;20176;-77
2022/08/14 00:24:36;;;;;;;0.40;0.40;;;15.00;99.90;;;;;;5049418;28;20187;-80
2022/08/14 00:27:02;;;;;;;0.40;0.40;;;15.00;1.00;;;;;;5039045;28;20233;-78
2022/08/14 00:29:31;;;;;;;0.53;0.53;;;14.90;1.00;;;;;;5041118;28;20191;-79
2022/08/14 00:31:56;;;;;;;0.40;0.40;;;14.80;99.90;;;;;;5048505;28;20197;-79
2022/08/14 00:34:23;;;;;;;0.30;0.30;;;14.90;1.00;;;;;;5038460;28;20302;-79
2022/08/14 00:36:48;;;;;;;0.40;0.40;;;14.90;1.00;;;;;;5039191;28;20175;-78
2022/08/14 00:39:15;;;;;;;0.40;0.40;;;14.80;26.50;;;;;;5051803;28;20359;-78
2022/08/14 00:41:41;;;;;;;0.40;0.40;;;14.70;1.00;;;;;;5046495;28;20727;-79
2022/08/14 00:44:06;;;;;;;0.40;0.40;;;14.70;1.00;;;;;;5054832;28;20199;-79
2022/08/14 00:46:32;;;;;;;0.50;0.50;;;14.60;99.90;;;;;;5049283;28;20182;-79
2022/08/14 00:48:58;;;;;;;0.57;0.57;;;14.60;99.90;;;;;;5059802;28;20248;-79
2022/08/14 00:51:24;;;;;;;0.30;0.30;;;14.60;99.90;;;;;;5060004;28;20171;-81
2022/08/14 00:53:49;;;;;;;0.47;0.47;;;14.50;1.00;;;;;;5062091;28;20279;-79
2022/08/14 00:56:16;;;;;;;0.50;0.50;;;14.40;99.90;;;;;;5067963;28;20169;-80
2022/08/14 00:58:41;;;;;;;0.40;0.40;;;14.40;1.00;;;;;;5077306;28;20184;-79
2022/08/14 01:01:10;;;;;;;0.50;0.50;;;14.40;1.00;;;;;;5068525;28;20183;-81
2022/08/14 01:03:38;;;;;;;0.60;0.60;;;14.30;99.90;;;;;;5069173;28;20188;-80
2022/08/14 01:06:05;;;;;;;0.40;0.40;;;14.20;1.00;;;;;;5061548;28;20236;-80
2022/08/14 01:08:31;;;;;;;0.40;0.40;;;14.30;1.00;;;;;;5062923;28;20171;-77
2022/08/14 01:10:57;;;;;;;0.60;0.60;;;14.20;1.00;;;;;;5053137;28;20185;-77
2022/08/14 01:13:31;;;;;;;0.50;0.50;;;14.10;92.20;;;;;;5046608;28;20204;-78
2022/08/14 01:15:59;;;;;;;0.50;0.50;;;14.10;99.90;;;;;;5033820;28;20688;-78
2022/08/14 01:21:15;;;;;;;0.53;0.53;;;14.20;99.90;;;;;;5036495;28;20244;-78
2022/08/14 01:23:47;;;;;;;0.60;0.60;;;14.00;99.90;;;;;;5039308;28;20267;-80
2022/08/14 01:26:15;;;;;;;0.60;0.60;;;14.00;99.80;;;;;;5027604;28;20190;-79
2022/08/14 01:28:41;;;;;;;0.50;0.50;;;13.80;99.90;;;;;;5016939;28;20250;-78
2022/08/14 01:31:12;;;;;;;0.40;0.40;;;13.80;99.90;;;;;;5032832;28;20228;-77
2022/08/14 01:33:43;;;;;;;0.40;0.40;;;13.80;99.90;;;;;;5049292;28;20212;-78
2022/08/14 01:36:09;;;;;;;0.50;0.50;;;13.80;1.00;;;;;;5035577;28;20229;-79
2022/08/14 01:38:36;;;;;;;0.50;0.50;;;13.80;1.00;;;;;;5038765;28;20188;-79
2022/08/14 01:41:13;;;;;;;0.50;0.50;;;13.70;1.00;;;;;;5035954;28;20269;-79
2022/08/14 01:43:48;;;;;;;0.50;0.50;;;13.80;1.00;;;;;;5046165;28;20298;-80
2022/08/14 01:46:19;;;;;;;0.40;0.40;;;13.80;1.00;;;;;;5034754;28;20196;-79
2022/08/14 01:48:45;;;;;;;0.50;0.50;;;13.90;1.00;;;;;;5054390;28;20183;-79
2022/08/14 01:51:12;;;;;;;0.60;0.60;;;13.90;1.00;;;;;;5033413;28;20208;-80
2022/08/14 01:53:40;;;;;;;0.50;0.50;;;13.70;1.00;;;;;;5045095;28;20219;-78
2022/08/14 01:56:07;;;;;;;0.40;0.40;;;13.70;1.00;;;;;;5053379;28;20187;-77
2022/08/14 01:58:32;;;;;;;0.40;0.40;;;13.60;1.00;;;;;;5050446;28;20182;-78
2022/08/14 02:00:58;;;;;;;0.53;0.53;;;13.70;1.00;;;;;;5037845;28;20180;-79
2022/08/14 02:03:30;;;;;;;0.67;0.67;;;13.70;1.00;;;;;;5035342;28;20221;-77
2022/08/14 02:06:00;;;;;;;0.60;0.60;;;13.60;1.00;;;;;;5041277;28;20179;-79
2022/08/14 02:08:28;;;;;;;0.40;0.40;;;13.60;1.00;;;;;;5030342;28;20190;-79
2022/08/14 02:11:15;;;;;;;0.50;0.50;;;13.50;1.00;;;;;;5048547;28;20276;-78
2022/08/14 02:13:42;;;;;;;0.50;0.50;;;13.40;1.00;;;;;;5033160;28;20211;-79
2022/08/14 02:16:11;;;;;;;0.50;0.50;;;13.50;1.00;;;;;;5037098;28;20229;-77
2022/08/14 02:18:38;;;;;;;0.50;0.50;;;13.50;1.00;;;;;;5048257;28;20308;-77
2022/08/14 02:21:04;;;;;;;0.50;0.50;;;13.40;1.00;;;;;;5049233;28;20198;-78
2022/08/14 02:23:30;;;;;;;0.60;0.60;;;13.40;1.00;;;;;;5032798;28;20669;-79
2022/08/14 02:25:58;;;;;;;0.50;0.50;;;13.50;1.00;;;;;;5043008;28;20182;-79
2022/08/14 02:28:25;;;;;;;0.60;0.60;;;13.40;1.00;;;;;;5053516;28;20544;-77
2022/08/14 02:30:51;;;;;;;0.60;0.60;;;13.30;1.00;;;;;;5051681;28;20185;-77
2022/08/14 02:33:17;;;;;;;0.60;0.60;;;13.30;1.00;;;;;;5052070;28;20301;-79
2022/08/14 02:35:43;;;;;;;0.60;0.60;;;13.30;1.00;;;;;;5038241;28;20644;-78
2022/08/14 02:38:09;;;;;;;0.50;0.50;;;13.20;1.00;;;;;;5045765;28;20214;-77
2022/08/14 02:40:36;;;;;;;0.50;0.50;;;13.10;1.00;;;;;;5051369;28;20175;-78
2022/08/14 02:43:03;;;;;;;0.50;0.50;;;13.10;1.00;;;;;;5051298;28;20261;-77
2022/08/14 02:45:31;;;;;;;0.50;0.50;;;13.20;1.00;;;;;;5047838;28;20571;-77
2022/08/14 02:47:57;;;;;;;0.60;0.60;;;13.00;1.00;;;;;;5052640;28;20179;-78
2022/08/14 02:50:23;;;;;;;0.50;0.50;;;13.00;1.00;;;;;;5046768;28;20190;-77
2022/08/14 02:52:48;;;;;;;0.50;0.50;;;13.10;1.00;;;;;;5036357;28;20242;-78
2022/08/14 02:55:14;;;;;;;0.60;0.60;;;13.10;1.00;;;;;;5034073;28;20226;-77
2022/08/14 02:57:41;;;;;;;0.53;0.53;;;13.20;1.00;;;;;;5047277;28;20527;-77
2022/08/14 03:00:08;;;;;;;0.60;0.60;;;13.10;1.00;;;;;;5044521;28;20190;-77
2022/08/14 03:02:34;;;;;;;0.50;0.50;;;13.10;1.00;;;;;;5033768;28;20667;-77
2022/08/14 03:04:59;;;;;;;0.50;0.50;;;13.20;1.00;;;;;;5044922;28;20176;-77
2022/08/14 03:07:25;;;;;;;0.60;0.60;;;13.20;1.00;;;;;;5049159;28;20181;-77
2022/08/14 03:09:50;;;;;;;0.43;0.43;;;13.00;1.00;;;;;;5041644;28;20183;-78
2022/08/14 03:12:16;;;;;;;0.43;0.43;;;12.70;1.00;;;;;;5031808;28;20219;-79
2022/08/14 03:14:47;;;;;;;0.50;0.50;;;12.70;1.00;;;;;;5049575;28;20215;-78
2022/08/14 03:17:14;;;;;;;0.50;0.50;;;12.80;1.00;;;;;;5052270;28;20172;-78
2022/08/14 03:19:40;;;;;;;0.50;0.50;;;12.70;1.00;;;;;;5043361;28;20180;-78
2022/08/14 03:22:06;;;;;;;0.60;0.60;;;12.70;1.00;;;;;;5037811;28;20637;-77
2022/08/14 03:24:32;;;;;;;0.60;0.60;;;12.80;1.00;;;;;;5049987;28;20186;-77
2022/08/14 03:26:57;;;;;;;0.50;0.50;;;12.90;1.00;;;;;;5039037;28;20214;-78
2022/08/14 03:29:24;;;;;;;0.40;0.40;;;12.90;1.00;;;;;;5049015;28;20171;-79
2022/08/14 03:31:50;;;;;;;0.60;0.60;;;12.90;1.00;;;;;;5046392;28;20543;-77
2022/08/14 03:34:17;;;;;;;0.50;0.50;;;12.90;1.00;;;;;;5058449;28;20235;-79
2022/08/14 03:36:43;;;;;;;0.50;0.50;;;12.80;1.00;;;;;;5043376;28;20176;-79
2022/08/14 03:39:10;;;;;;;0.53;0.53;;;12.70;1.00;;;;;;5051948;28;20684;-78
2022/08/14 03:41:36;;;;;;;0.50;0.50;;;12.60;1.00;;;;;;5039625;28;20179;-78
2022/08/14 03:44:04;;;;;;;0.40;0.40;;;12.70;1.00;;;;;;5035715;28;20374;-77
2022/08/14 03:46:33;;;;;;;0.50;0.50;;;12.60;1.00;;;;;;5068284;22;20310;-83
2022/08/14 03:49:01;;;;;;;0.50;0.50;;;12.70;1.00;;;;;;5058694;28;20264;-83
2022/08/14 03:51:27;;;;;;;0.50;0.50;;;12.70;1.00;;;;;;5057932;28;20175;-83
2022/08/14 03:54:02;;;;;;;0.60;0.60;;;12.60;1.00;;;;;;5056588;28;20640;-83
2022/08/14 03:56:28;;;;;;;0.57;0.57;;;12.50;1.00;;;;;;5056296;28;20175;-81
2022/08/14 03:58:57;;;;;;;0.53;0.53;;;12.50;1.00;;;;;;5055623;28;20262;-84
2022/08/14 04:01:24;;;;;;;0.50;0.50;;;12.50;1.00;;;;;;5050912;28;20186;-79
2022/08/14 04:03:51;;;;;;;0.40;0.40;;;12.50;1.00;;;;;;5055210;28;20270;-79
2022/08/14 04:06:20;;;;;;;0.43;0.43;;;12.50;1.00;;;;;;5055361;28;20291;-80
2022/08/14 04:08:48;;;;;;;0.40;0.40;;;12.50;1.00;;;;;;5055486;28;20183;-79
2022/08/14 04:11:14;;;;;;;0.40;0.40;;;12.40;1.00;;;;;;5054598;28;20675;-79
2022/08/14 04:13:41;;;;;;;0.50;0.50;;;12.40;1.00;;;;;;5039091;28;20323;-79
2022/08/14 04:16:16;;;;;;;0.40;0.40;;;12.30;1.00;;;;;;5055499;28;20183;-79
2022/08/14 04:18:48;;;;;;;0.40;0.40;;;12.30;1.00;;;;;;5054412;28;20225;-79
2022/08/14 04:21:14;;;;;;;0.53;0.53;;;12.10;1.00;;;;;;5054676;28;20171;-82
2022/08/14 04:23:41;;;;;;;0.40;0.40;;;12.00;1.00;;;;;;5054458;28;20278;-80
2022/08/14 04:26:09;;;;;;;0.50;0.50;;;12.20;1.00;;;;;;5053942;28;20181;-80
2022/08/14 04:28:36;;;;;;;0.50;0.50;;;12.30;1.00;;;;;;5054744;28;20209;-79
2022/08/14 04:31:03;;;;;;;0.50;0.50;;;12.20;1.00;;;;;;5054458;28;20192;-84
2022/08/14 04:33:29;;;;;;;0.50;0.50;;;12.30;1.00;;;;;;5054155;28;20276;-79
2022/08/14 04:35:55;;;;;;;0.40;0.40;;;12.40;1.00;;;;;;5054481;28;20175;-80
2022/08/14 04:43:50;;;;;;;0.60;0.60;;;12.50;1.00;;;;;;5055922;28;20213;-79
2022/08/14 04:46:19;;;;;;;0.50;0.50;;;12.70;1.00;;;;;;5053766;28;20278;-80
2022/08/14 04:48:45;;;;;;;0.50;0.50;;;12.90;1.00;;;;;;5053492;28;20179;-80
2022/08/14 04:51:12;;;;;;;0.50;0.50;;;12.70;1.00;;;;;;5053248;28;20179;-80
2022/08/14 04:53:43;;;;;;;0.40;0.40;;;12.50;1.00;;;;;;5053202;28;20512;-80
2022/08/14 04:56:13;;;;;;;0.40;0.40;;;12.30;1.00;;;;;;5053896;28;20183;-82
2022/08/14 04:58:41;;;;;;;0.50;0.50;;;12.60;1.00;;;;;;5053930;28;20294;-79
2022/08/14 05:01:08;;;;;;;0.47;0.47;;;12.90;1.00;;;;;;5053151;28;20202;-82
2022/08/14 05:03:36;;;;;;;0.40;0.40;;;13.10;1.00;;;;;;5036940;28;20286;-79
2022/08/14 05:06:04;;;;;;;0.50;0.50;;;13.20;1.00;;;;;;5052960;28;20266;-81
2022/08/14 05:08:31;;;;;;;0.50;0.50;;;13.60;1.00;;;;;;5053282;28;20183;-81
2022/08/14 05:10:58;;;;;;;0.40;0.40;;;14.00;1.00;;;;;;5052839;28;20540;-80
2022/08/14 05:13:27;;;;;;;0.40;0.40;;;14.10;1.00;;;;;;5052594;28;20310;-79
2022/08/14 05:15:53;;;;;;;0.60;0.60;;;14.20;1.00;;;;;;5052478;28;20206;-79
2022/08/14 05:18:21;;;;;;;0.40;0.40;;;14.30;1.00;;;;;;5055805;28;20186;-81
2022/08/14 05:20:54;;;;;;;0.40;0.40;;;14.30;1.00;;;;;;5057991;28;20608;-82
2022/08/14 05:23:22;;;;;;;0.47;0.47;;;14.10;1.00;;;;;;5058127;28;20195;-82
2022/08/14 05:25:52;;;;;;;0.40;0.40;;;14.00;1.00;;;;;;5041343;28;20202;-82
2022/08/14 05:28:23;;;;;;;0.40;0.40;;;14.40;1.00;;;;;;5059115;28;20179;-81
2022/08/14 05:30:51;;;;;;;0.30;0.30;;;14.70;1.00;;;;;;5058744;28;20190;-82
2022/08/14 05:33:18;;;;;;;0.37;0.37;;;15.00;99.90;;;;;;5042107;28;20264;-82
2022/08/14 05:35:45;;;;;;;0.40;0.40;;;15.10;99.90;;;;;;5059469;28;20237;-83
2022/08/14 05:38:12;;;;;;;0.40;0.40;;;15.10;99.90;;;;;;5053944;28;20624;-80
2022/08/14 05:40:39;;;;;;;0.23;0.23;;;15.30;1.00;;;;;;5058835;28;20171;-86
2022/08/14 05:43:05;;;;;;;0.33;0.33;;;15.60;99.90;;;;;;5071857;28;20218;-82
2022/08/14 05:45:31;;;;;;;0.40;0.40;;;15.70;99.90;;;;;;5059178;28;20195;-82
2022/08/14 05:47:57;;;;;;;0.40;0.40;;;15.90;1.00;;;;;;5058773;28;20179;-82
2022/08/14 05:50:22;;;;;;;0.40;0.40;;;16.00;99.90;;;;;;5058761;28;20210;-81
2022/08/14 05:52:49;;;;;;;0.30;0.30;;;16.20;1.00;;;;;;5057212;28;20226;-80
2022/08/14 05:55:15;;;;;;;0.33;0.33;;;16.20;1.00;;;;;;5055611;28;20238;-80
2022/08/14 05:58:00;;;;;;;0.40;0.40;;;16.20;1.00;;;;;;5055116;28;20179;-80
2022/08/14 06:00:32;;;;;;;0.30;0.30;;;15.70;1.00;;;;;;5055267;28;20171;-79
2022/08/14 06:03:00;;;;;;;0.40;0.40;;;15.50;99.90;;;;;;5057668;28;20863;-80
2022/08/14 06:05:26;;;;;;;0.30;0.30;;;15.70;23.00;;;;;;5044987;28;20314;-80
2022/08/14 06:07:52;;;;;;;0.40;0.40;;;15.80;1.00;;;;;;5051699;28;20865;-79
2022/08/14 06:10:18;;;;;;;0.40;0.40;;;15.80;1.00;;;;;;5049743;28;20203;-79
2022/08/14 06:12:44;;;;;;;0.33;0.33;;;16.10;1.00;;;;;;5055094;28;20202;-79
2022/08/14 06:15:11;;;;;;;0.30;0.30;;;16.40;99.90;;;;;;5055558;28;20195;-80
2022/08/14 06:17:50;;;;;;;0.30;0.30;;;16.50;1.00;;;;;;5055161;28;20267;-79
2022/08/14 06:20:17;;;;;;;0.30;0.30;;;16.70;1.00;;;;;;5055244;28;20186;-79
2022/08/14 06:22:44;;;;;;;0.40;0.40;;;16.40;1.00;;;;;;5048827;28;20200;-79
2022/08/14 06:25:12;;;;;;;0.40;0.40;;;16.30;46.00;;;;;;5047050;28;20191;-79
2022/08/14 06:27:39;;;;;;;0.43;0.43;;;16.20;1.00;;;;;;5050553;28;20180;-79
2022/08/14 06:30:07;;;;;;;0.37;0.37;;;16.20;99.90;;;;;;5061463;28;20194;-79
2022/08/14 06:32:33;;;;;;;0.33;0.33;;;16.40;99.90;;;;;;5075876;28;20234;-79
2022/08/14 06:34:59;;;;;;;0.40;0.40;;;16.60;1.00;;;;;;5063140;28;20192;-80
2022/08/14 06:37:26;;;;;;;0.47;0.47;;;17.40;99.90;;;;;;5074517;28;20238;-79
2022/08/14 06:39:51;;;;;;;0.50;0.50;;;17.50;1.00;;;;;;5066281;28;20183;-79
2022/08/14 06:42:17;;;;;;;0.37;0.37;;;18.10;1.00;;;;;;5061344;28;20176;-78
2022/08/14 06:44:43;;;;;;;0.40;0.40;;;18.50;99.90;;;;;;5075919;28;20194;-79
2022/08/14 06:47:09;;;;;;;0.30;0.30;;;18.50;1.00;;;;;;5065397;28;20838;-79
2022/08/14 06:49:36;;;;;;;0.30;0.30;;;18.40;38.30;;;;;;5063107;28;20186;-79
2022/08/14 06:52:03;;;;;;;0.40;0.40;;;18.60;1.00;;;;;;5064244;28;20243;-80
2022/08/14 06:54:30;;;;;;;0.30;0.30;;;18.90;1.00;;;;;;5065124;28;20222;-80
2022/08/14 06:56:56;;;;;;;0.30;0.30;;;19.10;1.00;;;;;;5064516;28;20205;-79
2022/08/14 06:59:21;;;;;;;0.30;0.30;;;19.30;1.00;;;;;;5058436;28;20179;-79
2022/08/14 07:07:15;;;;;;;0.40;0.40;;;19.20;1.00;;;;;;5052506;28;20245;-78
2022/08/14 07:09:40;;;;;;;0.37;0.37;;;19.30;1.00;;;;;;5062599;28;20183;-79
2022/08/14 07:12:07;;;;;;;0.40;0.40;;;19.20;15.50;;;;;;5064185;28;20175;-79
2022/08/14 07:14:33;;;;;;;0.30;0.30;;;19.70;1.00;;;;;;5063455;28;20249;-79
2022/08/14 07:16:59;;;;;;;0.30;0.30;;;19.80;1.00;;;;;;5062449;28;20187;-80
2022/08/14 07:19:24;;;;;;;0.30;0.30;;;20.20;1.00;;;;;;5065531;28;20242;-79
2022/08/14 07:21:50;;;;;;;0.30;0.30;;;20.50;1.00;;;;;;5070853;28;20175;-79
2022/08/14 07:24:15;;;;;;;0.30;0.30;;;20.70;1.00;;;;;;5069037;28;20215;-79
2022/08/14 07:26:41;;;;;;;0.30;0.30;;;20.70;1.00;;;;;;5063619;28;20178;-79
2022/08/14 07:29:07;;;;;;;0.30;0.30;;;20.70;1.00;;;;;;5047827;28;20613;-78
2022/08/14 07:31:32;;;;;;;0.30;0.30;;;21.00;1.00;;;;;;5044392;28;20194;-78
2022/08/14 07:33:58;;;;;;;0.30;0.30;;;21.30;1.00;;;;;;5047327;28;20234;-79
2022/08/14 07:36:23;;;;;;;0.30;0.30;;;21.50;1.00;;;;;;5041581;28;20188;-78
2022/08/14 07:38:49;;;;;;;0.30;0.30;;;21.90;1.00;;;;;;5039038;28;20203;-79
2022/08/14 07:41:15;;;;;;;0.30;0.30;;;22.20;1.00;;;;;;5044860;28;20182;-78
2022/08/14 07:43:42;;;;;;;0.30;0.30;;;22.20;1.00;;;;;;5045446;28;20286;-78
2022/08/14 07:46:08;;;;;;;0.33;0.33;;;22.70;1.00;;;;;;5043729;28;20683;-78
2022/08/14 07:48:40;;;;;;;0.30;0.30;;;23.60;1.00;;;;;;5041281;28;20180;-78
2022/08/14 07:51:06;;;;;;;0.20;0.20;;;24.40;1.00;;;;;;5047494;28;20176;-80
2022/08/14 07:53:32;;;;;;;0.30;0.30;;;24.70;1.00;;;;;;5044503;28;20554;-80
2022/08/14 07:55:58;;;;;;;0.40;0.40;;;25.30;1.00;;;;;;5051787;28;20269;-79
2022/08/14 07:58:23;;;;;;;0.30;0.30;;;25.80;1.00;;;;;;5055297;28;20221;-79
2022/08/14 08:00:53;;;;;;;0.50;0.50;;;26.00;1.00;;;;;;5050357;28;20248;-77
2022/08/14 08:03:19;;;;;;;0.40;0.40;;;26.20;1.00;;;;;;5054016;28;20638;-78
2022/08/14 08:05:45;;;;;;;0.50;0.50;;;26.70;1.00;;;;;;5051806;28;20606;-79
2022/08/14 08:08:11;;;;;;;0.50;0.50;;;26.90;1.00;;;;;;5040726;28;20228;-79
2022/08/14 08:10:40;;;;;;;0.50;0.50;;;27.40;1.00;;;;;;5051995;28;20273;-78
2022/08/14 08:13:16;;;;;;;0.55;0.55;;;27.60;1.00;;;;;;5051530;28;20306;-78
2022/08/14 08:15:43;;;;;;;0.70;0.70;;;27.60;1.00;;;;;;5055136;28;20262;-78
2022/08/14 08:18:10;;;;;;;0.60;0.60;;;27.50;1.00;;;;;;5055131;28;20203;-79
2022/08/14 08:20:40;;;;;;;0.50;0.50;;;27.70;1.00;;;;;;5054963;28;20214;-79
2022/08/14 08:23:08;;;;;;;0.60;0.60;;;28.10;1.00;;;;;;5059156;28;20211;-79
2022/08/14 08:25:36;;;;;;;0.55;0.55;;;28.00;1.00;;;;;;5060163;28;20237;-81
2022/08/14 08:28:14;;;;;;;0.63;0.63;;;28.00;1.00;;;;;;5058330;28;20189;-80
2022/08/14 08:30:48;;;;;;;0.50;0.50;;;28.10;1.00;;;;;;5055936;28;20179;-81
2022/08/14 08:33:15;;;;;;;0.60;0.60;;;27.70;1.00;;;;;;5059138;28;20227;-80
2022/08/14 08:35:41;;;;;;;0.57;0.57;;;27.60;1.00;;;;;;5059850;28;20183;-79
2022/08/14 08:38:09;;;;;;;0.43;0.43;;;27.60;1.00;;;;;;5056547;28;20245;-80
2022/08/14 08:40:41;;;;;;;0.40;0.40;;;27.70;1.00;;;;;;5057011;28;20171;-78
2022/08/14 08:43:19;;;;;;;0.50;0.50;;;27.90;1.00;;;;;;5058001;28;20203;-78
2022/08/14 08:46:02;;;;;;;0.60;0.60;;;27.70;1.00;;;;;;5065279;28;20197;-79
2022/08/14 08:48:46;;;;;;;0.50;0.50;;;28.10;1.00;;;;;;5066185;28;20175;-78
2022/08/14 08:51:26;;;;;;;0.50;0.50;;;28.30;1.00;;;;;;5064260;28;20179;-81
2022/08/14 08:54:02;;;;;;;0.50;0.50;;;28.70;1.00;;;;;;5058539;28;20211;-80
2022/08/14 08:56:49;;;;;;;0.60;0.60;;;28.50;1.00;;;;;;5056541;28;20178;-78
2022/08/14 08:59:26;;;;;;;0.60;0.60;;;27.80;1.00;;;;;;5049875;28;20219;-78
2022/08/14 09:01:56;;;;;;;0.60;0.60;;;28.00;1.00;;;;;;5052502;28;20265;-80
2022/08/14 09:04:24;;;;;;;0.60;0.60;;;28.70;1.00;;;;;;5051328;28;20622;-78
2022/08/14 09:06:49;;;;;;;0.65;0.65;;;28.90;1.00;;;;;;5055125;28;20244;-77
2022/08/14 09:09:22;;;;;;;0.60;0.60;;;29.10;1.00;;;;;;5054048;28;20282;-79
2022/08/14 09:11:49;;;;;;;0.50;0.50;;;28.90;1.00;;;;;;5054351;28;20311;-78
2022/08/14 09:14:14;;;;;;;0.50;0.50;;;28.70;1.00;;;;;;5053093;28;20269;-78
2022/08/14 09:16:40;;;;;;;0.50;0.50;;;29.10;1.00;;;;;;5053560;28;20183;-78
2022/08/14 09:19:06;;;;;;;0.60;0.60;;;29.60;1.00;;;;;;5052812;28;20182;-79
2022/08/14 09:21:33;;;;;;;0.60;0.60;;;29.80;1.00;;;;;;5052193;28;20262;-79
2022/08/14 09:24:00;;;;;;;0.60;0.60;;;29.60;1.00;;;;;;5046798;28;20711;-80
2022/08/14 09:26:25;;;;;;;0.50;0.50;;;29.90;1.00;;;;;;5045596;28;20177;-79
2022/08/14 09:28:51;;;;;;;0.60;0.60;;;30.20;1.00;;;;;;5052028;28;20239;-82
2022/08/14 09:31:18;;;;;;;0.50;0.50;;;30.20;1.00;;;;;;5056413;28;20283;-79
2022/08/14 09:34:06;;;;;;;0.60;0.60;;;30.50;1.00;;;;;;5055879;28;20715;-78
2022/08/14 09:36:44;;;;;;;0.60;0.60;;;30.50;1.00;;;;;;5042759;28;20181;-79
2022/08/14 09:39:31;;;;;;;0.40;0.40;;;31.20;1.00;;;;;;5044311;28;20286;-79
2022/08/14 09:42:14;;;;;;;0.40;0.40;;;31.80;1.00;;;;;;5055921;28;20206;-77
2022/08/14 09:44:58;;;;;;;0.30;0.30;;;31.70;1.00;;;;;;5056590;28;20390;-79
2022/08/14 09:47:44;;;;;;;0.30;0.30;;;31.50;1.00;;;;;;5055663;28;20254;-78
2022/08/14 09:50:28;;;;;;;0.35;0.35;;;31.10;1.00;;;;;;5052694;28;20191;-79
2022/08/14 09:53:02;;;;;;;0.50;0.50;;;30.90;1.00;;;;;;5053331;28;20223;-78
2022/08/14 09:55:34;;;;;;;0.45;0.45;;;31.20;1.00;;;;;;5055744;28;20227;-78
2022/08/14 09:58:19;;;;;;;0.60;0.60;;;31.10;1.00;;;;;;5054677;28;20182;-79
2022/08/14 10:00:52;;;;;;;0.60;0.60;;;30.60;1.00;;;;;;5051196;28;20187;-78
2022/08/14 10:03:26;;;;;;;0.60;0.60;;;29.80;1.00;;;;;;5053767;28;20199;-77
2022/08/14 10:06:06;;;;;;;0.60;0.60;;;30.10;1.00;;;;;;5053483;28;20193;-80
2022/08/14 10:08:50;;;;;;;0.50;0.50;;;30.40;1.00;;;;;;5052536;28;20175;-79
2022/08/14 10:11:18;;;;;;;0.60;0.60;;;31.40;1.00;;;;;;5051909;28;20183;-78
2022/08/14 10:13:46;;;;;;;0.60;0.60;;;30.90;1.00;;;;;;5052103;28;20237;-78
2022/08/14 10:16:13;;;;;;;0.57;0.57;;;31.20;1.00;;;;;;5052255;28;20201;-79
2022/08/14 10:18:38;;;;;;;0.60;0.60;;;31.40;1.00;;;;;;5051031;28;20795;-78
2022/08/14 10:21:08;;;;;;;0.50;0.50;;;31.20;1.00;;;;;;5050129;28;20186;-77
2022/08/14 10:23:43;;;;;;;0.60;0.60;;;30.80;1.00;;;;;;5051557;28;20203;-78
2022/08/14 10:26:09;;;;;;;0.60;0.60;;;30.40;1.00;;;;;;5051030;28;20241;-77
2022/08/14 10:29:02;;;;;;;0.60;0.60;;;30.50;1.00;;;;;;5050743;28;20190;-77
2022/08/14 10:31:30;;;;;;;0.50;0.50;;;30.80;1.00;;;;;;5049086;28;20497;-80
2022/08/14 10:34:10;;;;;;;0.50;0.50;;;29.70;1.00;;;;;;5046541;28;20579;-77
2022/08/14 10:36:42;;;;;;;0.60;0.60;;;30.40;1.00;;;;;;5052351;28;20190;-77
2022/08/14 10:39:28;;;;;;;0.60;0.60;;;30.30;1.00;;;;;;5050659;28;20181;-78
2022/08/14 10:42:06;;;;;;;0.43;0.43;;;30.30;1.00;;;;;;5048303;28;20464;-79
2022/08/14 10:44:37;;;;;;;0.40;0.40;;;30.10;1.00;;;;;;5047295;28;20595;-78
2022/08/14 10:47:08;;;;;;;0.50;0.50;;;30.80;1.00;;;;;;5043685;28;20205;-77
2022/08/14 10:49:36;;;;;;;0.57;0.57;;;31.50;1.00;;;;;;5051600;28;20179;-79
2022/08/14 10:52:08;;;;;;;0.60;0.60;;;31.10;1.00;;;;;;5048022;28;20190;-77
2022/08/14 10:54:42;;;;;;;0.50;0.50;;;30.10;1.00;;;;;;5051424;28;20305;-79
2022/08/14 10:57:23;;;;;;;0.50;0.50;;;30.70;1.00;;;;;;5050100;28;20213;-78
2022/08/14 10:59:54;;;;;;;0.40;0.40;;;30.80;1.00;;;;;;5050701;28;20539;-78
2022/08/14 11:02:32;;;;;;;0.60;0.60;;;30.70;1.00;;;;;;5051518;28;20214;-77
2022/08/14 11:05:14;;;;;;;0.70;0.70;;;30.90;1.00;;;;;;5051547;28;20611;-80
2022/08/14 11:07:42;;;;;;;0.50;0.50;;;30.80;1.00;;;;;;5051403;28;20268;-80
2022/08/14 11:10:13;;;;;;;0.50;0.50;;;30.60;1.00;;;;;;5049944;28;20682;-78
2022/08/14 11:12:47;;;;;;;0.60;0.60;;;30.80;1.00;;;;;;5050997;28;20699;-77
2022/08/14 11:15:21;;;;;;;0.60;0.60;;;30.90;1.00;;;;;;5050036;28;20183;-79
2022/08/14 11:17:49;;;;;;;0.60;0.60;;;30.60;1.00;;;;;;5049825;28;20536;-77
2022/08/14 11:20:20;;;;;;;0.50;0.50;;;30.30;1.00;;;;;;5042780;28;20176;-76
2022/08/14 11:22:46;;;;;;;0.50;0.50;;;30.40;1.00;;;;;;5047867;28;20203;-78
2022/08/14 11:25:14;;;;;;;0.40;0.40;;;30.30;1.00;;;;;;5045809;28;20188;-78
2022/08/14 11:27:42;;;;;;;0.57;0.57;;;30.40;1.00;;;;;;5048694;28;20191;-77
2022/08/14 11:30:11;;;;;;;0.60;0.60;;;30.80;1.00;;;;;;5048062;28;20187;-77
2022/08/14 11:32:39;;;;;;;0.40;0.40;;;30.80;1.00;;;;;;5052619;28;20195;-77
2022/08/14 11:35:05;;;;;;;0.50;0.50;;;31.10;1.00;;;;;;5051243;28;20593;-77
2022/08/14 11:37:32;;;;;;;0.60;0.60;;;31.50;1.00;;;;;;5049496;28;20334;-78
2022/08/14 11:40:00;;;;;;;0.63;0.63;;;30.70;1.00;;;;;;5050240;28;20190;-77
2022/08/14 11:42:27;;;;;;;0.60;0.60;;;30.60;1.00;;;;;;5052774;28;20211;-79
2022/08/14 11:44:56;;;;;;;0.50;0.50;;;30.70;1.00;;;;;;5055755;28;20592;-79
2022/08/14 11:47:23;;;;;;;0.50;0.50;;;30.70;1.00;;;;;;5056426;28;20183;-77
2022/08/14 11:49:49;;;;;;;0.40;0.40;;;30.90;1.00;;;;;;5054193;28;20225;-78
2022/08/14 11:52:16;;;;;;;0.53;0.53;;;31.10;1.00;;;;;;5055679;28;20183;-77
2022/08/14 11:54:42;;;;;;;0.47;0.47;;;31.10;1.00;;;;;;5055345;28;20219;-78
2022/08/14 11:57:15;;;;;;;0.43;0.43;;;31.00;1.00;;;;;;5056982;28;20554;-78
2022/08/14 11:59:41;;;;;;;0.50;0.50;;;31.60;1.00;;;;;;5054119;28;20191;-78
2022/08/14 12:02:14;;;;;;;0.50;0.50;;;31.90;1.00;;;;;;5050713;28;20189;-77
2022/08/14 12:04:50;;;;;;;0.60;0.60;;;31.20;1.00;;;;;;5054625;28;20257;-77
2022/08/14 12:07:17;;;;;;;0.50;0.50;;;31.80;1.00;;;;;;5052097;28;20207;-78
2022/08/14 12:09:45;;;;;;;0.60;0.60;;;31.90;1.00;;;;;;5054976;28;20207;-77
2022/08/14 12:12:19;;;;;;;0.60;0.60;;;31.80;1.00;;;;;;5054713;28;20187;-79
2022/08/14 12:14:56;;;;;;;0.60;0.60;;;31.70;1.00;;;;;;5051733;28;20222;-76
2022/08/14 12:17:24;;;;;;;0.70;0.70;;;31.70;1.00;;;;;;5051953;28;20183;-78
2022/08/14 12:19:57;;;;;;;0.60;0.60;;;31.50;1.00;;;;;;5049992;28;20187;-77
2022/08/14 12:22:40;;;;;;;0.60;0.60;;;31.00;1.00;;;;;;5052674;28;20210;-80
2022/08/14 12:25:08;;;;;;;0.60;0.60;;;31.00;1.00;;;;;;5056192;28;20187;-79
2022/08/14 12:27:48;;;;;;;0.50;0.50;;;31.60;1.00;;;;;;5056832;28;20179;-78
2022/08/14 12:30:24;;;;;;;0.60;0.60;;;31.60;1.00;;;;;;5056833;28;20218;-79
2022/08/14 12:32:50;;;;;;;0.60;0.60;;;31.60;1.00;;;;;;5054994;28;20203;-77
2022/08/14 12:35:15;;;;;;;0.60;0.60;;;31.60;1.00;;;;;;5055362;28;20190;-77
2022/08/14 12:37:49;;;;;;;0.60;0.60;;;31.50;1.00;;;;;;5054938;28;20187;-79
2022/08/14 12:40:16;;;;;;;0.40;0.40;;;31.20;1.00;;;;;;5047857;28;20186;-78
2022/08/14 12:42:43;;;;;;;0.43;0.43;;;30.90;1.00;;;;;;5052469;28;20229;-77
2022/08/14 12:45:12;;;;;;;0.40;0.40;;;31.20;1.00;;;;;;5054181;28;20219;-79
2022/08/14 12:47:38;;;;;;;0.50;0.50;;;31.00;1.00;;;;;;5052161;28;20179;-78
2022/08/14 12:50:05;;;;;;;0.50;0.50;;;31.10;1.00;;;;;;5049976;28;20650;-77
2022/08/14 12:52:40;;;;;;;0.50;0.50;;;31.20;1.00;;;;;;5053914;28;20651;-78
2022/08/14 12:55:09;;;;;;;0.50;0.50;;;31.30;1.00;;;;;;5051467;28;20194;-77
2022/08/14 12:57:41;;;;;;;0.50;0.50;;;31.40;1.00;;;;;;5054101;28;20175;-77
2022/08/14 13:00:18;;;;;;;0.50;0.50;;;31.40;1.00;;;;;;5050884;28;20191;-78
2022/08/14 13:02:46;;;;;;;0.60;0.60;;;31.90;1.00;;;;;;5051857;28;20609;-80
2022/08/14 13:05:13;;;;;;;0.70;0.70;;;31.80;1.00;;;;;;5049203;28;20558;-78
2022/08/14 13:07:41;;;;;;;0.50;0.50;;;31.40;1.00;;;;;;5056559;28;20218;-77
2022/08/14 13:10:13;;;;;;;0.50;0.50;;;31.70;1.00;;;;;;5052248;28;20183;-77
2022/08/14 13:12:39;;;;;;;0.77;0.77;;;31.90;1.00;;;;;;5051919;28;20292;-77
2022/08/14 13:15:07;;;;;;;0.47;0.47;;;32.10;1.00;;;;;;5048927;28;20222;-78
2022/08/14 13:17:42;;;;;;;0.60;0.60;;;31.80;1.00;;;;;;5046399;28;20266;-77